Time;durP1;ratioP1;P1;durP2;ratioP2;P2;SDS_P1;SDS_P2;PMS_P1;PMS_P2;Temp;Humidity;BMP_temperature;BMP_pressure;BME280_temperature;BME280_humidity;BME280_pressure;Samples;Min_cycle;Max_cycle;Signal;HPM_P1;HPM_P2
2019/08/13 00:00:31;;;;;;;4.95;3.5;;;;;;;15.77;100;95456.3;;;;
2019/08/13 00:01:58;;;;;;;4.95;3.5;;;;;;;15.77;100;95456.3;;;;
2019/08/13 00:09:03;;;;;;;4.95;3.5;;;;;;;15.77;100;95456.3;;;;
2019/08/13 00:15:20;;;;;;;4;3.6;;;;;;;15.69;100;95458.56;;;;
2019/08/13 00:24:11;;;;;;;5.15;3.4;;;;;;;15.69;100;95457.61;;;;
2019/08/13 00:25:13;;;;;;;5.15;3.4;;;;;;;15.69;100;95457.61;;;;
2019/08/13 00:26:16;;;;;;;5.15;3.4;;;;;;;15.69;100;95457.61;;;;
2019/08/13 00:27:18;;;;;;;5.15;3.4;;;;;;;15.69;100;95457.61;;;;
2019/08/13 00:28:19;;;;;;;5.15;3.4;;;;;;;15.69;100;95457.61;;;;
2019/08/13 00:29:21;;;;;;;5.15;3.4;;;;;;;15.69;100;95457.61;;;;
2019/08/13 00:30:23;;;;;;;3.85;3.45;;;;;;;15.62;100;95450.22;;;;
2019/08/13 00:31:43;;;;;;;3.85;3.45;;;;;;;15.62;100;95450.22;;;;
2019/08/13 00:32:45;;;;;;;3.85;3.45;;;;;;;15.62;100;95450.22;;;;
2019/08/13 00:33:46;;;;;;;3.85;3.45;;;;;;;15.62;100;95450.22;;;;
2019/08/13 00:34:48;;;;;;;3.85;3.45;;;;;;;15.62;100;95450.22;;;;
2019/08/13 00:35:49;;;;;;;3.85;3.45;;;;;;;15.62;100;95450.22;;;;
2019/08/13 00:36:50;;;;;;;3.85;3.45;;;;;;;15.62;100;95450.22;;;;
2019/08/13 00:37:51;;;;;;;3.85;3.45;;;;;;;15.62;100;95450.22;;;;
2019/08/13 00:38:52;;;;;;;3.85;3.45;;;;;;;15.62;100;95450.22;;;;
2019/08/13 00:39:54;;;;;;;3.85;3.45;;;;;;;15.62;100;95450.22;;;;
2019/08/13 00:40:55;;;;;;;3.8;3.2;;;;;;;15.59;100;95450.34;;;;
2019/08/13 00:41:57;;;;;;;3.8;3.2;;;;;;;15.59;100;95450.34;;;;
2019/08/13 00:42:58;;;;;;;3.8;3.2;;;;;;;15.59;100;95450.34;;;;
2019/08/13 00:43:59;;;;;;;3.8;3.2;;;;;;;15.59;100;95450.34;;;;
2019/08/13 00:45:00;;;;;;;3.8;3.2;;;;;;;15.59;100;95450.34;;;;
2019/08/13 00:46:05;;;;;;;3.8;3.2;;;;;;;15.59;100;95450.34;;;;
2019/08/13 00:47:06;;;;;;;3.8;3.2;;;;;;;15.59;100;95450.34;;;;
2019/08/13 00:48:08;;;;;;;3.8;3.2;;;;;;;15.59;100;95450.34;;;;
2019/08/13 00:49:09;;;;;;;3.8;3.2;;;;;;;15.59;100;95450.34;;;;
2019/08/13 00:50:11;;;;;;;3.8;3.2;;;;;;;15.59;100;95450.34;;;;
2019/08/13 00:51:14;;;;;;;4.45;3.65;;;;;;;15.45;100;95452.84;;;;
2019/08/13 00:52:17;;;;;;;4.45;3.65;;;;;;;15.45;100;95452.84;;;;
2019/08/13 00:53:18;;;;;;;4.45;3.65;;;;;;;15.45;100;95452.84;;;;
2019/08/13 00:54:20;;;;;;;4.45;3.65;;;;;;;15.45;100;95452.84;;;;
2019/08/13 00:55:21;;;;;;;4.45;3.65;;;;;;;15.45;100;95452.84;;;;
2019/08/13 00:56:22;;;;;;;4.45;3.65;;;;;;;15.45;100;95452.84;;;;
2019/08/13 00:57:24;;;;;;;4.45;3.65;;;;;;;15.45;100;95452.84;;;;
2019/08/13 00:58:25;;;;;;;4.45;3.65;;;;;;;15.45;100;95452.84;;;;
2019/08/13 00:59:28;;;;;;;4.45;3.65;;;;;;;15.45;100;95452.84;;;;
2019/08/13 01:00:29;;;;;;;4.45;3.65;;;;;;;15.45;100;95452.84;;;;
2019/08/13 01:01:44;;;;;;;4.3;3.5;;;;;;;15.4;100;95448.66;;;;
2019/08/13 01:02:46;;;;;;;4.3;3.5;;;;;;;15.4;100;95448.66;;;;
2019/08/13 01:03:47;;;;;;;4.3;3.5;;;;;;;15.4;100;95448.66;;;;
2019/08/13 01:04:49;;;;;;;4.3;3.5;;;;;;;15.4;100;95448.66;;;;
2019/08/13 01:05:50;;;;;;;4.3;3.5;;;;;;;15.4;100;95448.66;;;;
2019/08/13 01:06:51;;;;;;;4.3;3.5;;;;;;;15.4;100;95448.66;;;;
2019/08/13 01:07:52;;;;;;;4.3;3.5;;;;;;;15.4;100;95448.66;;;;
2019/08/13 01:08:54;;;;;;;4.3;3.5;;;;;;;15.4;100;95448.66;;;;
2019/08/13 01:09:57;;;;;;;4.3;3.5;;;;;;;15.4;100;95448.66;;;;
2019/08/13 01:10:58;;;;;;;4.3;3.5;;;;;;;15.4;100;95448.66;;;;
2019/08/13 01:12:00;;;;;;;3.55;3.25;;;;;;;15.26;100;95440.14;;;;
2019/08/13 01:13:02;;;;;;;3.55;3.25;;;;;;;15.26;100;95440.14;;;;
2019/08/13 01:14:03;;;;;;;3.55;3.25;;;;;;;15.26;100;95440.14;;;;
2019/08/13 01:15:05;;;;;;;3.55;3.25;;;;;;;15.26;100;95440.14;;;;
2019/08/13 01:16:08;;;;;;;3.55;3.25;;;;;;;15.26;100;95440.14;;;;
2019/08/13 01:17:09;;;;;;;3.55;3.25;;;;;;;15.26;100;95440.14;;;;
2019/08/13 01:18:11;;;;;;;3.55;3.25;;;;;;;15.26;100;95440.14;;;;
2019/08/13 01:19:12;;;;;;;3.55;3.25;;;;;;;15.26;100;95440.14;;;;
2019/08/13 01:20:13;;;;;;;3.55;3.25;;;;;;;15.26;100;95440.14;;;;
2019/08/13 01:21:15;;;;;;;3.55;3.25;;;;;;;15.26;100;95440.14;;;;
2019/08/13 01:22:17;;;;;;;3.55;3.25;;;;;;;15.26;100;95440.14;;;;
2019/08/13 01:23:19;;;;;;;5.149999;3.7;;;;;;;15.19;100;95427.72;;;;
2019/08/13 01:24:21;;;;;;;5.149999;3.7;;;;;;;15.19;100;95427.72;;;;
2019/08/13 01:25:23;;;;;;;5.149999;3.7;;;;;;;15.19;100;95427.72;;;;
2019/08/13 01:26:24;;;;;;;5.149999;3.7;;;;;;;15.19;100;95427.72;;;;
2019/08/13 01:27:26;;;;;;;5.149999;3.7;;;;;;;15.19;100;95427.72;;;;
2019/08/13 01:28:27;;;;;;;5.149999;3.7;;;;;;;15.19;100;95427.72;;;;
2019/08/13 01:29:29;;;;;;;5.149999;3.7;;;;;;;15.19;100;95427.72;;;;
2019/08/13 01:30:38;;;;;;;5.149999;3.7;;;;;;;15.19;100;95427.72;;;;
2019/08/13 01:32:39;;;;;;;5.149999;3.7;;;;;;;15.19;100;95427.72;;;;
2019/08/13 01:38:54;;;;;;;6.1;4.2;;;;;;;15.09;100;95444.51;;;;
2019/08/13 01:40:12;;;;;;;6.1;4.2;;;;;;;15.09;100;95444.51;;;;
2019/08/13 01:41:23;;;;;;;6.1;4.2;;;;;;;15.09;100;95444.51;;;;
2019/08/13 01:42:24;;;;;;;6.1;4.2;;;;;;;15.09;100;95444.51;;;;
2019/08/13 01:43:53;;;;;;;6.1;4.2;;;;;;;15.09;100;95444.51;;;;
2019/08/13 01:45:04;;;;;;;4.3;3.75;;;;;;;15.06;100;95440.52;;;;
2019/08/13 01:46:16;;;;;;;4.3;3.75;;;;;;;15.06;100;95440.52;;;;
2019/08/13 01:47:23;;;;;;;4.3;3.75;;;;;;;15.06;100;95440.52;;;;
2019/08/13 01:48:28;;;;;;;4.3;3.75;;;;;;;15.06;100;95440.52;;;;
2019/08/13 01:50:29;;;;;;;4.3;3.75;;;;;;;15.06;100;95440.52;;;;
2019/08/13 01:51:48;;;;;;;4.3;3.75;;;;;;;15.06;100;95440.52;;;;
2019/08/13 01:56:37;;;;;;;4.400001;4;;;;;;;14.95;100;95445.47;;;;
2019/08/13 01:58:17;;;;;;;4.400001;4;;;;;;;14.95;100;95445.47;;;;
2019/08/13 01:59:22;;;;;;;4.400001;4;;;;;;;14.95;100;95445.47;;;;
2019/08/13 02:01:07;;;;;;;4.400001;4;;;;;;;14.95;100;95445.47;;;;
2019/08/13 02:02:15;;;;;;;4.400001;4;;;;;;;14.95;100;95445.47;;;;
2019/08/13 02:03:22;;;;;;;4.400001;4;;;;;;;14.95;100;95445.47;;;;
2019/08/13 02:07:58;;;;;;;4.599999;3.95;;;;;;;14.91;100;95452.64;;;;
2019/08/13 02:09:00;;;;;;;4.599999;3.95;;;;;;;14.91;100;95452.64;;;;
2019/08/13 02:10:41;;;;;;;4.599999;3.95;;;;;;;14.91;100;95452.64;;;;
2019/08/13 02:11:43;;;;;;;4.599999;3.95;;;;;;;14.91;100;95452.64;;;;
2019/08/13 02:12:47;;;;;;;4.599999;3.95;;;;;;;14.91;100;95452.64;;;;
2019/08/13 02:13:49;;;;;;;4.599999;3.95;;;;;;;14.91;100;95452.64;;;;
2019/08/13 02:14:50;;;;;;;4.599999;3.95;;;;;;;14.91;100;95452.64;;;;
2019/08/13 02:21:17;;;;;;;5.95;4.299999;;;;;;;14.82;100;95440.06;;;;
2019/08/13 02:22:33;;;;;;;5.95;4.299999;;;;;;;14.82;100;95440.06;;;;
2019/08/13 02:23:40;;;;;;;5.95;4.299999;;;;;;;14.82;100;95440.06;;;;
2019/08/13 02:24:45;;;;;;;5.95;4.299999;;;;;;;14.82;100;95440.06;;;;
2019/08/13 02:34:55;;;;;;;5.85;4.5;;;;;;;14.8;100;95435.42;;;;
2019/08/13 02:39:56;;;;;;;6.5;4.7;;;;;;;14.72;100;95425.42;;;;
2019/08/13 02:44:57;;;;;;;6.5;4.7;;;;;;;14.72;100;95425.42;;;;
2019/08/13 02:49:58;;;;;;;6.45;4.85;;;;;;;14.7;100;95427.15;;;;
2019/08/13 02:54:59;;;;;;;6.45;4.85;;;;;;;14.7;100;95427.15;;;;
2019/08/13 03:00:01;;;;;;;5.349999;4.85;;;;;;;14.53;100;95434.06;;;;
2019/08/13 03:03:07;;;;;;;5.349999;4.85;;;;;;;14.53;100;95434.06;;;;
2019/08/13 03:04:09;;;;;;;5.349999;4.85;;;;;;;14.53;100;95434.06;;;;
2019/08/13 03:05:11;;;;;;;5.349999;4.85;;;;;;;14.53;100;95434.06;;;;
2019/08/13 03:06:13;;;;;;;5.349999;4.85;;;;;;;14.53;100;95434.06;;;;
2019/08/13 03:07:14;;;;;;;5.349999;4.85;;;;;;;14.53;100;95434.06;;;;
2019/08/13 03:08:15;;;;;;;5.349999;4.85;;;;;;;14.53;100;95434.06;;;;
2019/08/13 03:09:17;;;;;;;6.199999;5.050001;;;;;;;14.49;100;95431.18;;;;
2019/08/13 03:10:19;;;;;;;6.199999;5.050001;;;;;;;14.49;100;95431.18;;;;
2019/08/13 03:11:35;;;;;;;6.199999;5.050001;;;;;;;14.49;100;95431.18;;;;
2019/08/13 03:12:36;;;;;;;6.199999;5.050001;;;;;;;14.49;100;95431.18;;;;
2019/08/13 03:13:37;;;;;;;6.199999;5.050001;;;;;;;14.49;100;95431.18;;;;
2019/08/13 03:14:38;;;;;;;6.199999;5.050001;;;;;;;14.49;100;95431.18;;;;
2019/08/13 03:15:39;;;;;;;6.199999;5.050001;;;;;;;14.49;100;95431.18;;;;
2019/08/13 03:16:40;;;;;;;6.199999;5.050001;;;;;;;14.49;100;95431.18;;;;
2019/08/13 03:17:42;;;;;;;6.199999;5.050001;;;;;;;14.49;100;95431.18;;;;
2019/08/13 03:18:43;;;;;;;6.199999;5.050001;;;;;;;14.49;100;95431.18;;;;
2019/08/13 03:19:44;;;;;;;8.6;5.35;;;;;;;14.46;100;95434.42;;;;
2019/08/13 03:20:46;;;;;;;8.6;5.35;;;;;;;14.46;100;95434.42;;;;
2019/08/13 03:21:47;;;;;;;8.6;5.35;;;;;;;14.46;100;95434.42;;;;
2019/08/13 03:22:48;;;;;;;8.6;5.35;;;;;;;14.46;100;95434.42;;;;
2019/08/13 03:23:49;;;;;;;8.6;5.35;;;;;;;14.46;100;95434.42;;;;
2019/08/13 03:24:51;;;;;;;8.6;5.35;;;;;;;14.46;100;95434.42;;;;
2019/08/13 03:25:52;;;;;;;8.6;5.35;;;;;;;14.46;100;95434.42;;;;
2019/08/13 03:26:56;;;;;;;8.6;5.35;;;;;;;14.46;100;95434.42;;;;
2019/08/13 03:27:57;;;;;;;8.6;5.35;;;;;;;14.46;100;95434.42;;;;
2019/08/13 03:28:58;;;;;;;8.6;5.35;;;;;;;14.46;100;95434.42;;;;
2019/08/13 03:29:59;;;;;;;7.399999;5.6;;;;;;;14.51;100;95442.21;;;;
2019/08/13 03:31:00;;;;;;;7.399999;5.6;;;;;;;14.51;100;95442.21;;;;
2019/08/13 03:32:02;;;;;;;7.399999;5.6;;;;;;;14.51;100;95442.21;;;;
2019/08/13 03:33:04;;;;;;;7.399999;5.6;;;;;;;14.51;100;95442.21;;;;
2019/08/13 03:34:05;;;;;;;7.399999;5.6;;;;;;;14.51;100;95442.21;;;;
2019/08/13 03:35:07;;;;;;;7.399999;5.6;;;;;;;14.51;100;95442.21;;;;
2019/08/13 03:36:09;;;;;;;7.399999;5.6;;;;;;;14.51;100;95442.21;;;;
2019/08/13 03:37:12;;;;;;;7.399999;5.6;;;;;;;14.51;100;95442.21;;;;
2019/08/13 03:38:13;;;;;;;7.399999;5.6;;;;;;;14.51;100;95442.21;;;;
2019/08/13 03:39:14;;;;;;;7.399999;5.6;;;;;;;14.51;100;95442.21;;;;
2019/08/13 03:40:16;;;;;;;7.399999;5.6;;;;;;;14.51;100;95442.21;;;;
2019/08/13 03:41:19;;;;;;;9.65;6.05;;;;;;;14.47;100;95443.25;;;;
2019/08/13 03:42:20;;;;;;;9.65;6.05;;;;;;;14.47;100;95443.25;;;;
2019/08/13 03:43:21;;;;;;;9.65;6.05;;;;;;;14.47;100;95443.25;;;;
2019/08/13 03:44:22;;;;;;;9.65;6.05;;;;;;;14.47;100;95443.25;;;;
2019/08/13 03:45:23;;;;;;;9.65;6.05;;;;;;;14.47;100;95443.25;;;;
2019/08/13 03:46:32;;;;;;;9.65;6.05;;;;;;;14.47;100;95443.25;;;;
2019/08/13 03:47:34;;;;;;;9.65;6.05;;;;;;;14.47;100;95443.25;;;;
2019/08/13 03:48:36;;;;;;;9.65;6.05;;;;;;;14.47;100;95443.25;;;;
2019/08/13 03:49:37;;;;;;;9.65;6.05;;;;;;;14.47;100;95443.25;;;;
2019/08/13 03:50:38;;;;;;;9.65;6.05;;;;;;;14.47;100;95443.25;;;;
2019/08/13 03:51:40;;;;;;;6.7;5.05;;;;;;;14.42;100;95444.15;;;;
2019/08/13 03:52:41;;;;;;;6.7;5.05;;;;;;;14.42;100;95444.15;;;;
2019/08/13 03:53:42;;;;;;;6.7;5.05;;;;;;;14.42;100;95444.15;;;;
2019/08/13 03:54:43;;;;;;;6.7;5.05;;;;;;;14.42;100;95444.15;;;;
2019/08/13 03:55:44;;;;;;;6.7;5.05;;;;;;;14.42;100;95444.15;;;;
2019/08/13 03:56:46;;;;;;;6.7;5.05;;;;;;;14.42;100;95444.15;;;;
2019/08/13 03:57:48;;;;;;;6.7;5.05;;;;;;;14.42;100;95444.15;;;;
2019/08/13 03:58:49;;;;;;;6.7;5.05;;;;;;;14.42;100;95444.15;;;;
2019/08/13 03:59:50;;;;;;;6.7;5.05;;;;;;;14.42;100;95444.15;;;;
2019/08/13 04:00:51;;;;;;;6.7;5.05;;;;;;;14.42;100;95444.15;;;;
2019/08/13 04:01:52;;;;;;;6.400001;5.349999;;;;;;;14.3;100;95452.95;;;;
2019/08/13 04:02:53;;;;;;;6.400001;5.349999;;;;;;;14.3;100;95452.95;;;;
2019/08/13 04:03:54;;;;;;;6.400001;5.349999;;;;;;;14.3;100;95452.95;;;;
2019/08/13 04:04:56;;;;;;;6.400001;5.349999;;;;;;;14.3;100;95452.95;;;;
2019/08/13 04:05:57;;;;;;;6.400001;5.349999;;;;;;;14.3;100;95452.95;;;;
2019/08/13 04:06:58;;;;;;;6.400001;5.349999;;;;;;;14.3;100;95452.95;;;;
2019/08/13 04:07:59;;;;;;;6.400001;5.349999;;;;;;;14.3;100;95452.95;;;;
2019/08/13 04:09:01;;;;;;;6.400001;5.349999;;;;;;;14.3;100;95452.95;;;;
2019/08/13 04:10:05;;;;;;;6.400001;5.349999;;;;;;;14.3;100;95452.95;;;;
2019/08/13 04:11:08;;;;;;;6.400001;5.349999;;;;;;;14.3;100;95452.95;;;;
2019/08/13 04:12:11;;;;;;;6.400001;5.349999;;;;;;;14.3;100;95452.95;;;;
2019/08/13 04:13:13;;;;;;;7.799999;5.600001;;;;;;;14.24;100;95463.06;;;;
2019/08/13 04:14:14;;;;;;;7.799999;5.600001;;;;;;;14.24;100;95463.06;;;;
2019/08/13 04:15:15;;;;;;;7.799999;5.600001;;;;;;;14.24;100;95463.06;;;;
2019/08/13 04:16:17;;;;;;;7.799999;5.600001;;;;;;;14.24;100;95463.06;;;;
2019/08/13 04:17:19;;;;;;;7.799999;5.600001;;;;;;;14.24;100;95463.06;;;;
2019/08/13 04:18:20;;;;;;;7.799999;5.600001;;;;;;;14.24;100;95463.06;;;;
2019/08/13 04:19:21;;;;;;;7.799999;5.600001;;;;;;;14.24;100;95463.06;;;;
2019/08/13 04:20:22;;;;;;;7.799999;5.600001;;;;;;;14.24;100;95463.06;;;;
2019/08/13 04:21:36;;;;;;;7.799999;5.600001;;;;;;;14.24;100;95463.06;;;;
2019/08/13 04:22:37;;;;;;;7.799999;5.600001;;;;;;;14.24;100;95463.06;;;;
2019/08/13 04:23:38;;;;;;;7.900001;6.199999;;;;;;;14.13;100;95478;;;;
2019/08/13 04:24:39;;;;;;;7.900001;6.199999;;;;;;;14.13;100;95478;;;;
2019/08/13 04:25:40;;;;;;;7.900001;6.199999;;;;;;;14.13;100;95478;;;;
2019/08/13 04:26:41;;;;;;;7.900001;6.199999;;;;;;;14.13;100;95478;;;;
2019/08/13 04:27:43;;;;;;;7.900001;6.199999;;;;;;;14.13;100;95478;;;;
2019/08/13 04:28:44;;;;;;;7.900001;6.199999;;;;;;;14.13;100;95478;;;;
2019/08/13 04:29:45;;;;;;;7.900001;6.199999;;;;;;;14.13;100;95478;;;;
2019/08/13 04:30:48;;;;;;;7.900001;6.199999;;;;;;;14.13;100;95478;;;;
2019/08/13 04:31:49;;;;;;;7.900001;6.199999;;;;;;;14.13;100;95478;;;;
2019/08/13 04:32:50;;;;;;;7.900001;6.199999;;;;;;;14.13;100;95478;;;;
2019/08/13 04:33:51;;;;;;;10.25;6.7;;;;;;;14.17;100;95481.3;;;;
2019/08/13 04:34:52;;;;;;;10.25;6.7;;;;;;;14.17;100;95481.3;;;;
2019/08/13 04:35:54;;;;;;;10.25;6.7;;;;;;;14.17;100;95481.3;;;;
2019/08/13 04:36:55;;;;;;;10.25;6.7;;;;;;;14.17;100;95481.3;;;;
2019/08/13 04:37:56;;;;;;;10.25;6.7;;;;;;;14.17;100;95481.3;;;;
2019/08/13 04:38:57;;;;;;;10.25;6.7;;;;;;;14.17;100;95481.3;;;;
2019/08/13 04:39:58;;;;;;;10.25;6.7;;;;;;;14.17;100;95481.3;;;;
2019/08/13 04:40:59;;;;;;;10.25;6.7;;;;;;;14.17;100;95481.3;;;;
2019/08/13 04:42:00;;;;;;;10.25;6.7;;;;;;;14.17;100;95481.3;;;;
2019/08/13 04:43:01;;;;;;;10.25;6.7;;;;;;;14.17;100;95481.3;;;;
2019/08/13 04:44:03;;;;;;;10.25;6.7;;;;;;;14.17;100;95481.3;;;;
2019/08/13 04:45:04;;;;;;;8.799999;6.1;;;;;;;14.31;100;95497.66;;;;
2019/08/13 04:46:06;;;;;;;8.799999;6.1;;;;;;;14.31;100;95497.66;;;;
2019/08/13 04:47:07;;;;;;;8.799999;6.1;;;;;;;14.31;100;95497.66;;;;
2019/08/13 04:48:08;;;;;;;8.799999;6.1;;;;;;;14.31;100;95497.66;;;;
2019/08/13 04:49:10;;;;;;;8.799999;6.1;;;;;;;14.31;100;95497.66;;;;
2019/08/13 04:50:11;;;;;;;8.799999;6.1;;;;;;;14.31;100;95497.66;;;;
2019/08/13 04:51:32;;;;;;;8.799999;6.1;;;;;;;14.31;100;95497.66;;;;
2019/08/13 04:52:34;;;;;;;8.799999;6.1;;;;;;;14.31;100;95497.66;;;;
2019/08/13 04:53:35;;;;;;;8.799999;6.1;;;;;;;14.31;100;95497.66;;;;
2019/08/13 04:54:36;;;;;;;8.799999;6.1;;;;;;;14.31;100;95497.66;;;;
2019/08/13 04:55:37;;;;;;;10;5.750001;;;;;;;14.56;100;95498.36;;;;
2019/08/13 04:56:38;;;;;;;10;5.750001;;;;;;;14.56;100;95498.36;;;;
2019/08/13 04:57:39;;;;;;;10;5.750001;;;;;;;14.56;100;95498.36;;;;
2019/08/13 04:58:41;;;;;;;10;5.750001;;;;;;;14.56;100;95498.36;;;;
2019/08/13 04:59:42;;;;;;;10;5.750001;;;;;;;14.56;100;95498.36;;;;
2019/08/13 05:00:43;;;;;;;10;5.750001;;;;;;;14.56;100;95498.36;;;;
2019/08/13 05:01:45;;;;;;;10;5.750001;;;;;;;14.56;100;95498.36;;;;
2019/08/13 05:02:46;;;;;;;10;5.750001;;;;;;;14.56;100;95498.36;;;;
2019/08/13 05:03:47;;;;;;;10;5.750001;;;;;;;14.56;100;95498.36;;;;
2019/08/13 05:04:48;;;;;;;10;5.750001;;;;;;;14.56;100;95498.36;;;;
2019/08/13 05:05:49;;;;;;;6.799999;6.1;;;;;;;14.68;100;95498.08;;;;
2019/08/13 05:06:51;;;;;;;6.799999;6.1;;;;;;;14.68;100;95498.08;;;;
2019/08/13 05:07:52;;;;;;;6.799999;6.1;;;;;;;14.68;100;95498.08;;;;
2019/08/13 05:08:53;;;;;;;6.799999;6.1;;;;;;;14.68;100;95498.08;;;;
2019/08/13 05:09:54;;;;;;;6.799999;6.1;;;;;;;14.68;100;95498.08;;;;
2019/08/13 05:10:55;;;;;;;6.799999;6.1;;;;;;;14.68;100;95498.08;;;;
2019/08/13 05:11:58;;;;;;;6.799999;6.1;;;;;;;14.68;100;95498.08;;;;
2019/08/13 05:12:59;;;;;;;6.799999;6.1;;;;;;;14.68;100;95498.08;;;;
2019/08/13 05:14:00;;;;;;;6.799999;6.1;;;;;;;14.68;100;95498.08;;;;
2019/08/13 05:15:01;;;;;;;6.799999;6.1;;;;;;;14.68;100;95498.08;;;;
2019/08/13 05:16:05;;;;;;;7.349999;6.000001;;;;;;;14.89;100;95503.2;;;;
2019/08/13 05:17:06;;;;;;;7.349999;6.000001;;;;;;;14.89;100;95503.2;;;;
2019/08/13 05:18:07;;;;;;;7.349999;6.000001;;;;;;;14.89;100;95503.2;;;;
2019/08/13 05:19:08;;;;;;;7.349999;6.000001;;;;;;;14.89;100;95503.2;;;;
2019/08/13 05:20:09;;;;;;;7.349999;6.000001;;;;;;;14.89;100;95503.2;;;;
2019/08/13 05:21:11;;;;;;;7.349999;6.000001;;;;;;;14.89;100;95503.2;;;;
2019/08/13 05:22:12;;;;;;;7.349999;6.000001;;;;;;;14.89;100;95503.2;;;;
2019/08/13 05:23:13;;;;;;;7.349999;6.000001;;;;;;;14.89;100;95503.2;;;;
2019/08/13 05:24:14;;;;;;;7.349999;6.000001;;;;;;;14.89;100;95503.2;;;;
2019/08/13 05:25:15;;;;;;;7.349999;6.000001;;;;;;;14.89;100;95503.2;;;;
2019/08/13 05:26:17;;;;;;;7.349999;6.000001;;;;;;;14.89;100;95503.2;;;;
2019/08/13 05:27:18;;;;;;;8.75;6.25;;;;;;;15.21;100;95511.38;;;;
2019/08/13 05:28:19;;;;;;;8.75;6.25;;;;;;;15.21;100;95511.38;;;;
2019/08/13 05:29:20;;;;;;;8.75;6.25;;;;;;;15.21;100;95511.38;;;;
2019/08/13 05:30:21;;;;;;;8.75;6.25;;;;;;;15.21;100;95511.38;;;;
2019/08/13 05:31:37;;;;;;;8.75;6.25;;;;;;;15.21;100;95511.38;;;;
2019/08/13 05:32:38;;;;;;;8.75;6.25;;;;;;;15.21;100;95511.38;;;;
2019/08/13 05:33:40;;;;;;;8.75;6.25;;;;;;;15.21;100;95511.38;;;;
2019/08/13 05:34:43;;;;;;;8.75;6.25;;;;;;;15.21;100;95511.38;;;;
2019/08/13 05:35:50;;;;;;;8.75;6.25;;;;;;;15.21;100;95511.38;;;;
2019/08/13 05:36:52;;;;;;;8.75;6.25;;;;;;;15.21;100;95511.38;;;;
2019/08/13 05:37:53;;;;;;;8.300001;6.000001;;;;;;;15.48;100;95517.21;;;;
2019/08/13 05:38:54;;;;;;;8.300001;6.000001;;;;;;;15.48;100;95517.21;;;;
2019/08/13 05:39:56;;;;;;;8.300001;6.000001;;;;;;;15.48;100;95517.21;;;;
2019/08/13 05:40:57;;;;;;;8.300001;6.000001;;;;;;;15.48;100;95517.21;;;;
2019/08/13 05:41:58;;;;;;;8.300001;6.000001;;;;;;;15.48;100;95517.21;;;;
2019/08/13 05:42:59;;;;;;;8.300001;6.000001;;;;;;;15.48;100;95517.21;;;;
2019/08/13 05:44:00;;;;;;;8.300001;6.000001;;;;;;;15.48;100;95517.21;;;;
2019/08/13 05:45:02;;;;;;;8.300001;6.000001;;;;;;;15.48;100;95517.21;;;;
2019/08/13 05:46:04;;;;;;;8.300001;6.000001;;;;;;;15.48;100;95517.21;;;;
2019/08/13 05:47:05;;;;;;;8.300001;6.000001;;;;;;;15.48;100;95517.21;;;;
2019/08/13 05:48:06;;;;;;;8.950001;5.349999;;;;;;;15.87;100;95535.85;;;;
2019/08/13 05:49:07;;;;;;;8.950001;5.349999;;;;;;;15.87;100;95535.85;;;;
2019/08/13 05:50:09;;;;;;;8.950001;5.349999;;;;;;;15.87;100;95535.85;;;;
2019/08/13 05:51:10;;;;;;;8.950001;5.349999;;;;;;;15.87;100;95535.85;;;;
2019/08/13 05:52:11;;;;;;;8.950001;5.349999;;;;;;;15.87;100;95535.85;;;;
2019/08/13 05:53:12;;;;;;;8.950001;5.349999;;;;;;;15.87;100;95535.85;;;;
2019/08/13 05:59:21;;;;;;;7.75;5.1;;;;;;;16.37;100;95535.6;;;;
2019/08/13 06:00:26;;;;;;;7.75;5.1;;;;;;;16.37;100;95535.6;;;;
2019/08/13 06:01:29;;;;;;;7.75;5.1;;;;;;;16.37;100;95535.6;;;;
2019/08/13 06:02:31;;;;;;;7.75;5.1;;;;;;;16.37;100;95535.6;;;;
2019/08/13 06:03:32;;;;;;;7.75;5.1;;;;;;;16.37;100;95535.6;;;;
2019/08/13 06:04:34;;;;;;;7.75;5.1;;;;;;;16.37;100;95535.6;;;;
2019/08/13 06:05:35;;;;;;;7.75;5.1;;;;;;;16.37;100;95535.6;;;;
2019/08/13 06:06:36;;;;;;;7.75;5.1;;;;;;;16.37;100;95535.6;;;;
2019/08/13 06:07:37;;;;;;;7.75;5.1;;;;;;;16.37;100;95535.6;;;;
2019/08/13 06:08:38;;;;;;;7.75;5.1;;;;;;;16.37;100;95535.6;;;;
2019/08/13 06:09:41;;;;;;;6.15;4.2;;;;;;;16.87;100;95550.97;;;;
2019/08/13 06:10:42;;;;;;;6.15;4.2;;;;;;;16.87;100;95550.97;;;;
2019/08/13 06:11:44;;;;;;;6.15;4.2;;;;;;;16.87;100;95550.97;;;;
2019/08/13 06:12:45;;;;;;;6.15;4.2;;;;;;;16.87;100;95550.97;;;;
2019/08/13 06:13:46;;;;;;;6.15;4.2;;;;;;;16.87;100;95550.97;;;;
2019/08/13 06:14:47;;;;;;;6.15;4.2;;;;;;;16.87;100;95550.97;;;;
2019/08/13 06:15:48;;;;;;;6.15;4.2;;;;;;;16.87;100;95550.97;;;;
2019/08/13 06:16:49;;;;;;;6.15;4.2;;;;;;;16.87;100;95550.97;;;;
2019/08/13 06:17:50;;;;;;;6.15;4.2;;;;;;;16.87;100;95550.97;;;;
2019/08/13 06:18:52;;;;;;;6.15;4.2;;;;;;;16.87;100;95550.97;;;;
2019/08/13 06:19:54;;;;;;;6.05;4;;;;;;;17.14;100;95554.72;;;;
2019/08/13 06:20:56;;;;;;;6.05;4;;;;;;;17.14;100;95554.72;;;;
2019/08/13 06:21:57;;;;;;;6.05;4;;;;;;;17.14;100;95554.72;;;;
2019/08/13 06:22:58;;;;;;;6.05;4;;;;;;;17.14;100;95554.72;;;;
2019/08/13 06:24:00;;;;;;;6.05;4;;;;;;;17.14;100;95554.72;;;;
2019/08/13 06:25:01;;;;;;;6.05;4;;;;;;;17.14;100;95554.72;;;;
2019/08/13 06:26:06;;;;;;;6.05;4;;;;;;;17.14;100;95554.72;;;;
2019/08/13 06:27:07;;;;;;;6.05;4;;;;;;;17.14;100;95554.72;;;;
2019/08/13 06:28:12;;;;;;;6.05;4;;;;;;;17.14;100;95554.72;;;;
2019/08/13 06:29:13;;;;;;;6.05;4;;;;;;;17.14;100;95554.72;;;;
2019/08/13 06:30:14;;;;;;;3.95;3.55;;;;;;;17.53;100;95568.7;;;;
2019/08/13 06:31:16;;;;;;;3.95;3.55;;;;;;;17.53;100;95568.7;;;;
2019/08/13 06:32:17;;;;;;;3.95;3.55;;;;;;;17.53;100;95568.7;;;;
2019/08/13 06:33:18;;;;;;;3.95;3.55;;;;;;;17.53;100;95568.7;;;;
2019/08/13 06:34:19;;;;;;;3.95;3.55;;;;;;;17.53;100;95568.7;;;;
2019/08/13 06:35:20;;;;;;;3.95;3.55;;;;;;;17.53;100;95568.7;;;;
2019/08/13 06:36:36;;;;;;;3.95;3.55;;;;;;;17.53;100;95568.7;;;;
2019/08/13 06:37:37;;;;;;;3.95;3.55;;;;;;;17.53;100;95568.7;;;;
2019/08/13 06:38:38;;;;;;;3.95;3.55;;;;;;;17.53;100;95568.7;;;;
2019/08/13 06:39:40;;;;;;;3.95;3.55;;;;;;;17.53;100;95568.7;;;;
2019/08/13 06:40:41;;;;;;;3.95;3.55;;;;;;;17.53;100;95568.7;;;;
2019/08/13 06:41:42;;;;;;;5.55;3.4;;;;;;;17.9;100;95578.01;;;;
2019/08/13 06:42:43;;;;;;;5.55;3.4;;;;;;;17.9;100;95578.01;;;;
2019/08/13 06:43:45;;;;;;;5.55;3.4;;;;;;;17.9;100;95578.01;;;;
2019/08/13 06:44:46;;;;;;;5.55;3.4;;;;;;;17.9;100;95578.01;;;;
2019/08/13 06:45:47;;;;;;;5.55;3.4;;;;;;;17.9;100;95578.01;;;;
2019/08/13 06:46:48;;;;;;;5.55;3.4;;;;;;;17.9;100;95578.01;;;;
2019/08/13 06:47:49;;;;;;;5.55;3.4;;;;;;;17.9;100;95578.01;;;;
2019/08/13 06:48:50;;;;;;;5.55;3.4;;;;;;;17.9;100;95578.01;;;;
2019/08/13 06:49:52;;;;;;;5.55;3.4;;;;;;;17.9;100;95578.01;;;;
2019/08/13 06:50:53;;;;;;;5.55;3.4;;;;;;;17.9;100;95578.01;;;;
2019/08/13 06:51:54;;;;;;;4.45;3.4;;;;;;;18.16;100;95580.84;;;;
2019/08/13 06:52:55;;;;;;;4.45;3.4;;;;;;;18.16;100;95580.84;;;;
2019/08/13 06:53:56;;;;;;;4.45;3.4;;;;;;;18.16;100;95580.84;;;;
2019/08/13 06:54:57;;;;;;;4.45;3.4;;;;;;;18.16;100;95580.84;;;;
2019/08/13 06:55:58;;;;;;;4.45;3.4;;;;;;;18.16;100;95580.84;;;;
2019/08/13 06:57:00;;;;;;;4.45;3.4;;;;;;;18.16;100;95580.84;;;;
2019/08/13 06:58:01;;;;;;;4.45;3.4;;;;;;;18.16;100;95580.84;;;;
2019/08/13 06:59:03;;;;;;;4.45;3.4;;;;;;;18.16;100;95580.84;;;;
2019/08/13 07:00:04;;;;;;;4.45;3.4;;;;;;;18.16;100;95580.84;;;;
2019/08/13 07:01:07;;;;;;;4.45;3.4;;;;;;;18.16;100;95580.84;;;;
2019/08/13 07:02:08;;;;;;;7.750001;3.55;;;;;;;18.8;100;95591.91;;;;
2019/08/13 07:03:10;;;;;;;7.750001;3.55;;;;;;;18.8;100;95591.91;;;;
2019/08/13 07:04:12;;;;;;;7.750001;3.55;;;;;;;18.8;100;95591.91;;;;
2019/08/13 07:05:13;;;;;;;7.750001;3.55;;;;;;;18.8;100;95591.91;;;;
2019/08/13 07:06:15;;;;;;;7.750001;3.55;;;;;;;18.8;100;95591.91;;;;
2019/08/13 07:07:16;;;;;;;7.750001;3.55;;;;;;;18.8;100;95591.91;;;;
2019/08/13 07:08:17;;;;;;;7.750001;3.55;;;;;;;18.8;100;95591.91;;;;
2019/08/13 07:09:21;;;;;;;7.750001;3.55;;;;;;;18.8;100;95591.91;;;;
2019/08/13 07:10:22;;;;;;;7.750001;3.55;;;;;;;18.8;100;95591.91;;;;
2019/08/13 07:11:23;;;;;;;7.750001;3.55;;;;;;;18.8;100;95591.91;;;;
2019/08/13 07:12:25;;;;;;;7.750001;3.55;;;;;;;18.8;100;95591.91;;;;
2019/08/13 07:13:26;;;;;;;6;3.65;;;;;;;18.98;100;95602.39;;;;
2019/08/13 07:14:27;;;;;;;6;3.65;;;;;;;18.98;100;95602.39;;;;
2019/08/13 07:15:28;;;;;;;6;3.65;;;;;;;18.98;100;95602.39;;;;
2019/08/13 07:16:35;;;;;;;6;3.65;;;;;;;18.98;100;95602.39;;;;
2019/08/13 07:17:37;;;;;;;6;3.65;;;;;;;18.98;100;95602.39;;;;
2019/08/13 07:18:38;;;;;;;6;3.65;;;;;;;18.98;100;95602.39;;;;
2019/08/13 07:19:39;;;;;;;6;3.65;;;;;;;18.98;100;95602.39;;;;
2019/08/13 07:20:40;;;;;;;6;3.65;;;;;;;18.98;100;95602.39;;;;
2019/08/13 07:21:42;;;;;;;6;3.65;;;;;;;18.98;100;95602.39;;;;
2019/08/13 07:22:43;;;;;;;6;3.65;;;;;;;18.98;100;95602.39;;;;
2019/08/13 07:23:44;;;;;;;5.95;4.199999;;;;;;;19.36;100;95598.53;;;;
2019/08/13 07:24:45;;;;;;;5.95;4.199999;;;;;;;19.36;100;95598.53;;;;
2019/08/13 07:25:46;;;;;;;5.95;4.199999;;;;;;;19.36;100;95598.53;;;;
2019/08/13 07:26:47;;;;;;;5.95;4.199999;;;;;;;19.36;100;95598.53;;;;
2019/08/13 07:27:48;;;;;;;5.95;4.199999;;;;;;;19.36;100;95598.53;;;;
2019/08/13 07:28:49;;;;;;;5.95;4.199999;;;;;;;19.36;100;95598.53;;;;